Terminal Aerodrome Forecast
Issued by NWS Kansas City/Pleasant Hill, MO

Home | Current Version | Previous Version | Text Only | Print | Product List | Glossary On
Versions: 1 2 3 4 5 6 7 8 9 10 11 12 13 14 15 16 17 18 19 20 21 22
353
FTUS43 KEAX 200407 AAB
TAFMCI
TAF AMD
KMCI 200407Z 2004/2024 VRB03KT 3SM -DZ BR OVC009
     FM200700 VRB02KT 1/2SM FG OVC001
     FM201600 11008KT 4SM BR OVC003
     FM201900 12008KT P6SM OVC012=

USA.gov is the U.S. government's official web portal to all federal, state and local government web resources and services.